KHYR/HYR METAR and TAF weather

Enter ICAO airport designator
Station Type Date Time Source
KHYR METAR 2019/04/21 21:53 UTC NOAA

KHYR 212153Z AUTO 04013G20KT 10SM FEW120 11/05 A2995 RMK AO2 SLP150 T01110050


Station Type Date Time Source
KHYR Decoded METAR 2019/04/21 21:53 UTC NOAA

HAYWARD MUNICIPAL AIRPORT, WI, United States (KHYR) 46-01N 91-27W 370M
Apr 21, 2019 - 05:53 PM EDT / 2019.04.21 2153 UTC
Wind: from the NE (040 degrees) at 15 MPH (13 KT) gusting to 23 MPH (20 KT):0
Visibility: 10 mile(s):0
Sky conditions: mostly clear
Temperature: 52.0 F (11.1 C)
Dew Point: 41.0 F (5.0 C)
Relative Humidity: 66%
Pressure (altimeter): 29.95 in. Hg (1014 hPa)
ob: KHYR 212153Z AUTO 04013G20KT 10SM FEW120 11/05 A2995 RMK AO2 SLP150 T01110050
cycle: 22

Station Type Date Time Source
KHYR TAF 2019/04/21 18:27 UTC NOAA

TAF KHYR 211723Z 2118/2218 06009G17KT P6SM VCSH BKN060 OVC080
FM212200 05010G17KT P6SM SCT060 BKN090
FM220200 04010G17KT 6SM BR VCSH OVC025
FM220400 05009G16KT P6SM -SHRA OVC015
FM220700 05008G17KT 5SM SHRA BR OVC015
FM221400 05010G18KT 4SM SHRA BR OVC009

Example: see airport list